createdAt,value
2018-11-22T00:00:28.617Z,35.40
2018-11-22T00:02:58.038Z,34.33
2018-11-22T00:05:26.066Z,34.95
2018-11-22T00:07:55.184Z,33.98
2018-11-22T00:10:23.725Z,33.67
2018-11-22T00:12:52.537Z,30.75
2018-11-22T00:15:22.078Z,33.00
2018-11-22T00:17:51.281Z,32.15
2018-11-22T00:20:19.320Z,32.50
2018-11-22T00:22:47.438Z,32.17
2018-11-22T00:25:16.563Z,30.05
2018-11-22T00:27:44.720Z,30.32
2018-11-22T00:30:14.624Z,30.75
2018-11-22T00:32:42.767Z,30.52
2018-11-22T00:35:12.267Z,31.12
2018-11-22T00:37:41.708Z,29.85
2018-11-22T00:40:12.289Z,28.55
2018-11-22T00:42:40.797Z,27.85
2018-11-22T00:45:10.403Z,28.10
2018-11-22T00:47:38.604Z,29.60
2018-11-22T00:50:08.094Z,28.27
2018-11-22T00:52:36.262Z,29.67
2018-11-22T00:55:04.735Z,28.90
2018-11-22T00:57:33.552Z,28.12
2018-11-22T01:00:01.607Z,28.17
2018-11-22T01:02:29.766Z,27.82
2018-11-22T01:04:57.790Z,27.35
2018-11-22T01:07:25.864Z,26.42
2018-11-22T01:09:54.244Z,27.75
2018-11-22T01:12:22.307Z,26.23
2018-11-22T01:14:50.420Z,29.40
2018-11-22T01:17:18.451Z,24.10
2018-11-22T01:19:46.581Z,29.07
2018-11-22T01:22:14.625Z,30.40
2018-11-22T01:24:42.770Z,28.42
2018-11-22T01:27:10.837Z,27.15
2018-11-22T01:29:39.003Z,28.45
2018-11-22T01:32:07.146Z,29.52
2018-11-22T01:34:35.314Z,30.32
2018-11-22T01:37:03.369Z,28.27
2018-11-22T01:39:31.610Z,27.85
2018-11-22T01:41:59.674Z,28.98
2018-11-22T01:44:27.820Z,26.93
2018-11-22T01:46:55.840Z,28.05
2018-11-22T01:49:24.193Z,27.50
2018-11-22T01:51:52.241Z,28.30
2018-11-22T01:54:20.357Z,27.48
2018-11-22T01:56:48.376Z,23.52
2018-11-22T01:59:16.772Z,25.68
2018-11-22T02:01:45.513Z,26.07
2018-11-22T02:04:13.576Z,25.30
2018-11-22T02:06:42.059Z,26.93
2018-11-22T02:09:10.900Z,25.68
2018-11-22T02:11:40.396Z,24.52
2018-11-22T02:14:08.469Z,26.82
2018-11-22T02:16:36.914Z,25.92
2018-11-22T02:19:05.026Z,24.70
2018-11-22T02:21:33.563Z,26.20
2018-11-22T02:24:02.330Z,26.45
2018-11-22T02:26:30.646Z,25.45
2018-11-22T02:28:58.667Z,25.85
2018-11-22T02:31:27.499Z,27.67
2018-11-22T02:33:55.513Z,25.23
2018-11-22T02:36:23.546Z,26.37
2018-11-22T02:38:51.699Z,27.85
2018-11-22T02:41:19.961Z,27.95
2018-11-22T02:43:48.272Z,27.48
2018-11-22T02:46:16.302Z,26.17
2018-11-22T02:48:44.440Z,25.45
2018-11-22T02:51:12.482Z,26.33
2018-11-22T02:53:40.654Z,25.60
2018-11-22T02:56:08.715Z,29.12
2018-11-22T02:58:36.836Z,28.75
2018-11-22T03:01:04.966Z,26.80
2018-11-22T03:03:33.074Z,26.37
2018-11-22T03:06:01.107Z,25.37
2018-11-22T03:08:29.338Z,27.77
2018-11-22T03:10:57.372Z,25.25
2018-11-22T03:13:25.534Z,25.65
2018-11-22T03:15:53.640Z,26.52
2018-11-22T03:18:21.754Z,25.72
2018-11-22T03:20:49.809Z,25.08
2018-11-22T03:23:17.923Z,26.15
2018-11-22T03:25:45.962Z,25.95
2018-11-22T03:28:14.341Z,27.55
2018-11-22T03:30:42.386Z,25.50
2018-11-22T03:33:10.479Z,26.23
2018-11-22T03:35:38.567Z,27.85
2018-11-22T03:38:06.666Z,27.10
2018-11-22T03:40:35.418Z,25.48
2018-11-22T03:43:03.994Z,23.80
2018-11-22T03:45:32.439Z,26.33
2018-11-22T03:48:00.551Z,23.47
2018-11-22T03:50:29.250Z,25.57
2018-11-22T03:52:57.619Z,26.40
2018-11-22T03:55:25.808Z,24.07
2018-11-22T03:57:54.500Z,24.82
2018-11-22T04:00:24.041Z,25.97
2018-11-22T04:02:52.727Z,25.12
2018-11-22T04:05:22.394Z,25.85
2018-11-22T04:07:50.529Z,24.43
2018-11-22T04:10:20.094Z,22.50
2018-11-22T04:12:48.258Z,23.32
2018-11-22T04:15:16.428Z,25.23
2018-11-22T04:17:44.541Z,23.38
2018-11-22T04:20:17.011Z,22.87
2018-11-22T04:22:45.127Z,21.65
2018-11-22T04:25:13.904Z,21.33
2018-11-22T04:27:42.200Z,21.85
2018-11-22T04:30:27.284Z,22.45
2018-11-22T04:32:55.429Z,21.17
2018-11-22T04:35:23.847Z,21.90
2018-11-22T04:37:52.068Z,23.62
2018-11-22T04:40:21.372Z,20.50
2018-11-22T04:42:50.037Z,19.80
2018-11-22T04:45:18.403Z,20.57
2018-11-22T04:47:47.189Z,20.75
2018-11-22T04:50:16.727Z,21.33
2018-11-22T04:52:44.866Z,22.02
2018-11-22T04:55:12.929Z,20.57
2018-11-22T04:57:41.026Z,21.35
2018-11-22T05:00:11.006Z,21.12
2018-11-22T05:02:39.059Z,21.60
2018-11-22T05:05:08.626Z,21.40
2018-11-22T05:07:37.053Z,21.35
2018-11-22T05:10:06.714Z,23.57
2018-11-22T05:12:34.857Z,21.60
2018-11-22T05:15:02.905Z,22.80
2018-11-22T05:17:30.933Z,22.62
2018-11-22T05:19:59.065Z,22.58
2018-11-22T05:22:27.100Z,23.27
2018-11-22T05:24:55.377Z,23.25
2018-11-22T05:27:23.573Z,22.75
2018-11-22T05:29:51.607Z,22.45
2018-11-22T05:32:19.639Z,22.82
2018-11-22T05:34:47.746Z,23.60
2018-11-22T05:37:15.803Z,23.18
2018-11-22T05:39:43.854Z,24.90
2018-11-22T05:42:11.983Z,24.57
2018-11-22T05:44:40.142Z,23.47
2018-11-22T05:47:08.155Z,24.30
2018-11-22T05:49:36.304Z,23.80
2018-11-22T05:52:04.347Z,24.90
2018-11-22T05:54:32.398Z,23.47
2018-11-22T05:57:00.542Z,22.67
2018-11-22T12:17:13.756Z,20.80
2018-11-22T12:19:42.221Z,19.77
2018-11-22T12:22:10.683Z,19.00
2018-11-22T12:24:39.188Z,19.32
2018-11-22T12:27:07.736Z,19.07
2018-11-22T12:29:36.180Z,19.52
2018-11-22T12:32:10.712Z,19.73
2018-11-22T12:34:44.417Z,18.23
2018-11-22T12:37:17.849Z,19.98
2018-11-22T12:39:46.502Z,18.92
2018-11-22T12:42:14.973Z,20.30
2018-11-22T12:44:43.516Z,20.08
2018-11-22T12:47:11.912Z,19.67
2018-11-22T12:49:40.361Z,18.73
2018-11-22T12:52:08.765Z,19.42
2018-11-22T12:54:37.236Z,17.65
2018-11-22T12:57:05.753Z,17.23
2018-11-22T12:59:34.205Z,20.23
2018-11-22T13:02:02.687Z,18.20
2018-11-22T13:04:31.218Z,18.75
2018-11-22T13:06:59.662Z,18.82
2018-11-22T13:09:28.104Z,17.32
2018-11-22T13:11:57.487Z,18.60
2018-11-22T13:14:25.912Z,18.10
2018-11-22T13:16:54.375Z,19.20
2018-11-22T13:19:22.959Z,21.25
2018-11-22T13:21:51.392Z,17.17
2018-11-22T13:24:19.839Z,18.95
2018-11-22T13:26:48.355Z,18.75
2018-11-22T13:29:16.776Z,18.07
2018-11-22T13:31:45.212Z,17.98
2018-11-22T13:34:13.707Z,16.45
2018-11-22T13:36:42.320Z,17.32
2018-11-22T13:39:11.543Z,16.93
2018-11-22T13:41:40.050Z,17.05
2018-11-22T13:44:08.644Z,16.20
2018-11-22T13:46:37.120Z,16.62
2018-11-22T13:49:05.853Z,17.45
2018-11-22T13:51:34.352Z,17.42
2018-11-22T13:54:02.902Z,19.75
2018-11-22T13:56:31.375Z,17.90
2018-11-22T13:58:59.946Z,19.67
2018-11-22T14:01:28.330Z,16.93
2018-11-22T14:03:56.979Z,18.98
2018-11-22T14:06:25.480Z,16.82
2018-11-22T14:08:53.969Z,18.90
2018-11-22T14:11:22.427Z,19.40
2018-11-22T14:13:51.148Z,18.98
2018-11-22T14:16:19.640Z,18.85
2018-11-22T14:18:48.084Z,18.92
2018-11-22T14:21:16.586Z,19.70
2018-11-22T14:23:45.164Z,20.02
2018-11-22T14:26:13.600Z,19.85
2018-11-22T14:28:42.172Z,19.45
2018-11-22T14:31:10.676Z,20.82
2018-11-22T14:33:39.219Z,21.50
2018-11-22T14:36:07.699Z,20.50
2018-11-22T14:38:36.370Z,21.07
2018-11-22T14:41:05.092Z,19.30
2018-11-22T14:43:33.525Z,19.77
2018-11-22T14:46:01.988Z,19.73
2018-11-22T14:48:30.470Z,17.00
2018-11-22T14:51:42.928Z,20.90
2018-11-22T14:54:11.399Z,18.32
2018-11-22T14:56:40.416Z,19.45
2018-11-22T14:59:08.907Z,18.98
2018-11-22T15:01:37.614Z,18.30
2018-11-22T15:04:06.230Z,17.60
2018-11-22T15:06:34.670Z,17.80
2018-11-22T15:09:03.202Z,19.98
2018-11-22T15:11:31.616Z,17.67
2018-11-22T15:14:00.061Z,18.32
2018-11-22T15:16:28.543Z,20.30
2018-11-22T15:18:56.989Z,19.75
2018-11-22T15:21:25.527Z,16.45
2018-11-22T15:23:54.092Z,17.17
2018-11-22T15:26:22.511Z,16.95
2018-11-22T15:28:50.826Z,17.80
2018-11-22T15:31:19.329Z,15.30
2018-11-22T15:33:47.799Z,15.55
2018-11-22T15:36:16.255Z,16.55
2018-11-22T15:38:44.727Z,17.48
2018-11-22T15:41:13.128Z,16.82
2018-11-22T15:43:41.522Z,17.80
2018-11-22T15:46:09.944Z,17.57
2018-11-22T15:48:41.163Z,15.95
2018-11-22T15:51:09.737Z,16.55
2018-11-22T15:53:38.168Z,16.15
2018-11-22T15:56:06.668Z,16.85
2018-11-22T15:58:35.156Z,16.93
2018-11-22T16:01:03.625Z,16.82
2018-11-22T16:03:33.182Z,17.48
2018-11-22T16:06:01.642Z,17.75
2018-11-22T16:08:29.992Z,16.80
2018-11-22T16:10:58.418Z,18.82
2018-11-22T16:13:27.078Z,18.12
2018-11-22T16:15:55.472Z,19.30
2018-11-22T16:18:24.029Z,19.15
2018-11-22T16:20:52.428Z,19.65
2018-11-22T16:23:20.847Z,20.27
2018-11-22T16:25:49.192Z,19.52
2018-11-22T16:28:17.517Z,18.40
2018-11-22T16:30:46.027Z,18.05
2018-11-22T16:33:14.382Z,19.25
2018-11-22T16:35:42.764Z,18.75
2018-11-22T16:38:11.136Z,19.17
2018-11-22T16:40:39.456Z,20.35
2018-11-22T16:43:07.788Z,21.23
2018-11-22T16:45:37.125Z,20.37
2018-11-22T16:48:07.333Z,19.98
2018-11-22T16:50:36.662Z,20.43
2018-11-22T16:53:05.212Z,19.92
2018-11-22T16:55:33.573Z,20.12
2018-11-22T16:58:02.641Z,22.13
2018-11-22T17:00:32.952Z,21.70
2018-11-22T17:03:02.821Z,22.17
2018-11-22T17:05:31.454Z,21.10
2018-11-22T17:08:00.505Z,21.30
2018-11-22T17:10:29.915Z,21.75
2018-11-22T17:12:59.383Z,21.87
2018-11-22T17:15:30.244Z,24.60
2018-11-22T17:17:59.064Z,23.05
2018-11-22T17:20:28.403Z,20.37
2018-11-22T17:22:56.861Z,22.93
2018-11-22T17:25:26.447Z,21.45
2018-11-22T17:27:56.304Z,23.35
2018-11-22T17:30:27.028Z,23.00
2018-11-22T17:32:55.548Z,25.10
2018-11-22T17:35:25.136Z,24.87
2018-11-22T17:37:54.630Z,24.85
2018-11-22T17:40:26.163Z,23.73
2018-11-22T17:42:54.725Z,21.50
2018-11-22T17:45:53.423Z,23.92
2018-11-22T17:48:21.765Z,22.95
2018-11-22T17:50:50.373Z,21.00
2018-11-22T17:53:18.706Z,19.55
2018-11-22T17:55:47.039Z,19.98
2018-11-22T17:58:15.676Z,20.68
2018-11-22T18:00:53.131Z,20.15
2018-11-22T18:03:21.592Z,19.52
2018-11-22T18:05:50.487Z,18.60
2018-11-22T18:08:18.796Z,19.70
2018-11-22T18:10:48.767Z,17.52
2018-11-22T18:13:17.189Z,17.95
2018-11-22T18:15:50.859Z,17.40
2018-11-22T18:18:19.206Z,19.12
2018-11-22T18:20:47.643Z,20.20
2018-11-22T18:23:15.978Z,19.90
2018-11-22T18:25:48.939Z,21.60
2018-11-22T18:28:12.644Z,21.95
2018-11-22T18:30:40.977Z,21.35
2018-11-22T18:33:09.667Z,20.92
2018-11-22T18:35:37.979Z,20.37
2018-11-22T18:38:06.380Z,20.65
2018-11-22T18:40:36.354Z,22.30
2018-11-22T18:43:05.141Z,21.00
2018-11-22T18:45:35.679Z,17.75
2018-11-22T18:48:04.863Z,22.60
2018-11-22T18:50:34.070Z,19.27
2018-11-22T18:53:02.453Z,19.52
2018-11-22T18:55:31.181Z,19.67
2018-11-22T18:57:59.520Z,19.15
2018-11-22T19:00:29.858Z,21.07
2018-11-22T19:02:59.513Z,22.70
2018-11-22T19:05:27.905Z,20.30
2018-11-22T19:07:56.883Z,18.87
2018-11-22T19:10:26.549Z,20.80
2018-11-22T19:12:56.261Z,21.30
2018-11-22T19:15:26.076Z,21.02
2018-11-22T19:17:54.838Z,21.02
2018-11-22T19:20:25.451Z,19.15
2018-11-22T19:22:54.438Z,20.50
2018-11-22T19:25:23.309Z,19.65
2018-11-22T19:27:52.021Z,18.52
2018-11-22T19:30:22.916Z,19.02
2018-11-22T19:32:52.245Z,19.45
2018-11-22T19:35:22.169Z,17.55
2018-11-22T19:37:50.872Z,18.70
2018-11-22T19:40:24.859Z,18.77
2018-11-22T19:42:54.433Z,17.57
2018-11-22T19:45:24.119Z,19.00
2018-11-22T19:47:52.443Z,19.67
2018-11-22T19:50:22.268Z,16.75
2018-11-22T19:52:51.103Z,19.70
2018-11-22T19:55:22.869Z,19.20
2018-11-22T19:57:52.855Z,19.32
2018-11-22T20:00:21.931Z,19.90
2018-11-22T20:02:51.053Z,18.40
2018-11-22T20:05:20.233Z,21.80
2018-11-22T20:07:50.331Z,20.77
2018-11-22T20:10:20.384Z,18.32
2018-11-22T20:12:48.876Z,18.17
2018-11-22T20:15:17.285Z,17.48
2018-11-22T20:17:46.614Z,17.27
2018-11-22T20:20:16.112Z,15.40
2018-11-22T20:22:44.630Z,16.15
2018-11-22T20:25:13.062Z,17.80
2018-11-22T20:27:43.064Z,15.55
2018-11-22T20:30:15.025Z,16.05
2018-11-22T20:32:43.498Z,17.62
2018-11-22T20:35:13.613Z,16.45
2018-11-22T20:37:42.361Z,16.82
2018-11-22T20:40:11.955Z,16.70
2018-11-22T20:42:40.899Z,15.90
2018-11-22T20:45:11.047Z,16.27
2018-11-22T20:47:40.222Z,16.67
2018-11-22T20:50:10.596Z,15.50
2018-11-22T20:52:39.031Z,15.15
2018-11-22T20:55:09.636Z,16.10
2018-11-22T20:57:38.065Z,15.58
2018-11-22T21:00:09.372Z,15.18
2018-11-22T21:02:37.849Z,15.75
2018-11-22T21:05:07.315Z,18.45
2018-11-22T21:07:35.805Z,16.87
2018-11-22T21:10:04.564Z,16.73
2018-11-22T21:12:33.031Z,16.25
2018-11-22T21:15:01.446Z,17.60
2018-11-22T21:17:29.871Z,18.02
2018-11-22T21:19:58.380Z,18.00
2018-11-22T21:22:26.860Z,17.30
2018-11-22T21:24:55.335Z,15.88
2018-11-22T21:27:23.795Z,16.52
2018-11-22T21:29:52.303Z,16.40
2018-11-22T21:32:20.760Z,16.90
2018-11-22T21:34:49.242Z,16.35
2018-11-22T21:37:17.672Z,17.25
2018-11-22T21:39:46.075Z,16.70
2018-11-22T21:42:14.533Z,16.93
2018-11-22T21:44:43.024Z,15.93
2018-11-22T21:47:11.460Z,17.62
2018-11-22T21:49:39.907Z,15.05
2018-11-22T21:52:08.373Z,16.60
2018-11-22T21:54:37.705Z,15.55
2018-11-22T21:57:06.118Z,16.05
2018-11-22T21:59:34.534Z,16.35
2018-11-22T22:02:02.965Z,18.42
2018-11-22T22:04:31.404Z,17.17
2018-11-22T22:06:59.836Z,14.95
2018-11-22T22:09:28.295Z,16.73
2018-11-22T22:11:56.710Z,16.60
2018-11-22T22:14:25.169Z,17.48
2018-11-22T22:16:53.750Z,17.12
2018-11-22T22:19:22.189Z,16.17
2018-11-22T22:21:50.683Z,15.78
2018-11-22T22:24:19.384Z,16.05
2018-11-22T22:26:47.843Z,16.93
2018-11-22T22:29:16.459Z,17.25
2018-11-22T22:31:44.881Z,15.90
2018-11-22T22:34:13.323Z,15.08
2018-11-22T22:36:41.782Z,14.13
2018-11-22T22:39:11.528Z,15.55
2018-11-22T22:41:40.052Z,16.15
2018-11-22T22:44:08.523Z,14.15
2018-11-22T22:46:36.956Z,14.68
2018-11-22T22:49:05.444Z,14.15
2018-11-22T22:51:33.893Z,14.30
2018-11-22T22:54:02.355Z,16.07
2018-11-22T22:56:30.743Z,15.60
2018-11-22T22:58:59.134Z,14.15
2018-11-22T23:01:27.599Z,14.68
2018-11-22T23:03:55.992Z,15.78
2018-11-22T23:06:24.371Z,15.48
2018-11-22T23:08:52.752Z,14.63
2018-11-22T23:11:21.179Z,15.88
2018-11-22T23:13:49.919Z,15.75
2018-11-22T23:16:18.329Z,14.45
2018-11-22T23:18:46.703Z,13.93
2018-11-22T23:21:15.128Z,12.90
2018-11-22T23:23:43.547Z,13.15
2018-11-22T23:26:11.996Z,13.80
2018-11-22T23:28:40.636Z,13.98
2018-11-22T23:31:09.019Z,14.83
2018-11-22T23:33:37.430Z,14.98
2018-11-22T23:36:05.938Z,14.98
2018-11-22T23:38:34.408Z,14.60
2018-11-22T23:41:02.795Z,14.28
2018-11-22T23:43:31.157Z,15.98
2018-11-22T23:45:59.572Z,14.85
2018-11-22T23:48:28.013Z,14.85
2018-11-22T23:50:56.876Z,15.75
2018-11-22T23:53:25.254Z,18.00
2018-11-22T23:55:53.700Z,15.72
2018-11-22T23:58:22.108Z,16.67
